sensor_id;sensor_type;location;lat;lon;timestamp;P1;durP1;ratioP1;P2;durP2;ratioP2
46767;SDS011;69007;48.978;18.066;2024-03-23T00:54:17;15.60;;;10.98;;
46767;SDS011;69007;48.978;18.066;2024-03-23T00:56:42;16.75;;;11.88;;
46767;SDS011;69007;48.978;18.066;2024-03-23T00:59:08;16.50;;;11.05;;
46767;SDS011;69007;48.978;18.066;2024-03-23T01:01:33;16.38;;;10.90;;
46767;SDS011;69007;48.978;18.066;2024-03-23T01:03:58;15.98;;;10.60;;
46767;SDS011;69007;48.978;18.066;2024-03-23T01:06:24;16.35;;;10.38;;
46767;SDS011;69007;48.978;18.066;2024-03-23T01:08:49;17.52;;;10.77;;
46767;SDS011;69007;48.978;18.066;2024-03-23T01:11:15;14.73;;;10.48;;
46767;SDS011;69007;48.978;18.066;2024-03-23T01:13:40;16.42;;;9.85;;
46767;SDS011;69007;48.978;18.066;2024-03-23T01:16:05;17.60;;;10.50;;
46767;SDS011;69007;48.978;18.066;2024-03-23T01:18:31;15.55;;;9.98;;
46767;SDS011;69007;48.978;18.066;2024-03-23T01:20:57;18.08;;;11.25;;
46767;SDS011;69007;48.978;18.066;2024-03-23T01:23:23;15.48;;;11.15;;
46767;SDS011;69007;48.978;18.066;2024-03-23T01:25:52;18.33;;;10.65;;
46767;SDS011;69007;48.978;18.066;2024-03-23T01:28:18;18.00;;;10.80;;
46767;SDS011;69007;48.978;18.066;2024-03-23T01:30:44;15.57;;;10.98;;
46767;SDS011;69007;48.978;18.066;2024-03-23T01:33:10;15.80;;;11.15;;
46767;SDS011;69007;48.978;18.066;2024-03-23T01:35:35;25.50;;;13.43;;
46767;SDS011;69007;48.978;18.066;2024-03-23T01:38:00;16.90;;;12.02;;
46767;SDS011;69007;48.978;18.066;2024-03-23T01:40:26;20.80;;;11.75;;
46767;SDS011;69007;48.978;18.066;2024-03-23T01:42:58;16.55;;;11.98;;
46767;SDS011;69007;48.978;18.066;2024-03-23T01:45:29;17.45;;;11.77;;
46767;SDS011;69007;48.978;18.066;2024-03-23T01:47:55;22.15;;;12.27;;
46767;SDS011;69007;48.978;18.066;2024-03-23T01:50:20;14.18;;;10.77;;
46767;SDS011;69007;48.978;18.066;2024-03-23T01:52:46;16.73;;;11.75;;
46767;SDS011;69007;48.978;18.066;2024-03-23T01:55:13;17.02;;;12.27;;
46767;SDS011;69007;48.978;18.066;2024-03-23T01:57:38;17.40;;;12.68;;
46767;SDS011;69007;48.978;18.066;2024-03-23T02:00:04;17.58;;;11.65;;
46767;SDS011;69007;48.978;18.066;2024-03-23T02:02:30;19.48;;;11.68;;
46767;SDS011;69007;48.978;18.066;2024-03-23T02:04:55;18.27;;;11.60;;
46767;SDS011;69007;48.978;18.066;2024-03-23T02:07:20;16.75;;;11.05;;
46767;SDS011;69007;48.978;18.066;2024-03-23T02:09:46;16.73;;;11.63;;
46767;SDS011;69007;48.978;18.066;2024-03-23T02:12:12;15.25;;;11.20;;
46767;SDS011;69007;48.978;18.066;2024-03-23T02:14:37;17.48;;;12.13;;
46767;SDS011;69007;48.978;18.066;2024-03-23T02:17:03;17.02;;;12.30;;
46767;SDS011;69007;48.978;18.066;2024-03-23T02:19:28;19.65;;;12.23;;
46767;SDS011;69007;48.978;18.066;2024-03-23T02:21:54;20.38;;;11.40;;
46767;SDS011;69007;48.978;18.066;2024-03-23T02:24:19;16.75;;;11.30;;
46767;SDS011;69007;48.978;18.066;2024-03-23T02:26:44;18.15;;;11.68;;
46767;SDS011;69007;48.978;18.066;2024-03-23T02:29:10;19.20;;;11.88;;
46767;SDS011;69007;48.978;18.066;2024-03-23T02:31:35;17.95;;;12.00;;
46767;SDS011;69007;48.978;18.066;2024-03-23T02:34:01;14.25;;;10.55;;
46767;SDS011;69007;48.978;18.066;2024-03-23T02:36:26;17.02;;;11.70;;
46767;SDS011;69007;48.978;18.066;2024-03-23T02:38:51;18.90;;;12.20;;
46767;SDS011;69007;48.978;18.066;2024-03-23T02:41:17;21.50;;;13.57;;
46767;SDS011;69007;48.978;18.066;2024-03-23T02:43:48;16.35;;;10.95;;
46767;SDS011;69007;48.978;18.066;2024-03-23T02:46:16;17.77;;;11.43;;
46767;SDS011;69007;48.978;18.066;2024-03-23T02:48:42;14.77;;;10.93;;
46767;SDS011;69007;48.978;18.066;2024-03-23T02:51:08;15.95;;;10.60;;
46767;SDS011;69007;48.978;18.066;2024-03-23T02:53:33;14.88;;;10.25;;
46767;SDS011;69007;48.978;18.066;2024-03-23T02:55:59;14.63;;;10.15;;
46767;SDS011;69007;48.978;18.066;2024-03-23T02:58:24;16.00;;;11.25;;
46767;SDS011;69007;48.978;18.066;2024-03-23T03:00:49;17.00;;;12.23;;
46767;SDS011;69007;48.978;18.066;2024-03-23T03:03:15;21.50;;;12.48;;
46767;SDS011;69007;48.978;18.066;2024-03-23T03:05:40;18.73;;;12.98;;
46767;SDS011;69007;48.978;18.066;2024-03-23T03:08:06;23.08;;;12.93;;
46767;SDS011;69007;48.978;18.066;2024-03-23T03:10:31;21.52;;;14.38;;
46767;SDS011;69007;48.978;18.066;2024-03-23T03:12:59;20.25;;;12.40;;
46767;SDS011;69007;48.978;18.066;2024-03-23T03:15:25;19.00;;;12.52;;
46767;SDS011;69007;48.978;18.066;2024-03-23T03:17:50;17.27;;;12.07;;
46767;SDS011;69007;48.978;18.066;2024-03-23T03:20:16;16.58;;;11.52;;
46767;SDS011;69007;48.978;18.066;2024-03-23T03:22:42;18.65;;;11.55;;
46767;SDS011;69007;48.978;18.066;2024-03-23T03:25:08;19.13;;;11.65;;
46767;SDS011;69007;48.978;18.066;2024-03-23T03:27:33;17.65;;;11.43;;
46767;SDS011;69007;48.978;18.066;2024-03-23T03:29:59;18.20;;;13.07;;
46767;SDS011;69007;48.978;18.066;2024-03-23T03:32:27;16.67;;;11.80;;
46767;SDS011;69007;48.978;18.066;2024-03-23T03:34:54;18.05;;;11.77;;
46767;SDS011;69007;48.978;18.066;2024-03-23T03:37:19;17.63;;;11.80;;
46767;SDS011;69007;48.978;18.066;2024-03-23T03:39:44;15.68;;;10.82;;
46767;SDS011;69007;48.978;18.066;2024-03-23T03:42:10;15.27;;;10.73;;
46767;SDS011;69007;48.978;18.066;2024-03-23T03:44:35;15.15;;;10.15;;
46767;SDS011;69007;48.978;18.066;2024-03-23T03:47:01;17.67;;;11.40;;
46767;SDS011;69007;48.978;18.066;2024-03-23T03:49:27;14.05;;;9.68;;
46767;SDS011;69007;48.978;18.066;2024-03-23T03:51:52;14.70;;;10.88;;
46767;SDS011;69007;48.978;18.066;2024-03-23T03:54:18;17.77;;;11.75;;
46767;SDS011;69007;48.978;18.066;2024-03-23T03:56:43;21.50;;;12.05;;
46767;SDS011;69007;48.978;18.066;2024-03-23T03:59:09;16.83;;;12.25;;
46767;SDS011;69007;48.978;18.066;2024-03-23T04:01:34;21.20;;;12.27;;
46767;SDS011;69007;48.978;18.066;2024-03-23T04:04:00;20.80;;;12.85;;
46767;SDS011;69007;48.978;18.066;2024-03-23T04:06:25;15.38;;;11.77;;
46767;SDS011;69007;48.978;18.066;2024-03-23T04:08:51;18.42;;;12.45;;
46767;SDS011;69007;48.978;18.066;2024-03-23T04:11:16;19.65;;;12.73;;
46767;SDS011;69007;48.978;18.066;2024-03-23T04:13:41;19.33;;;13.07;;
46767;SDS011;69007;48.978;18.066;2024-03-23T04:16:08;19.23;;;12.13;;
46767;SDS011;69007;48.978;18.066;2024-03-23T04:18:34;22.05;;;12.68;;
46767;SDS011;69007;48.978;18.066;2024-03-23T04:21:00;19.60;;;12.63;;
46767;SDS011;69007;48.978;18.066;2024-03-23T04:23:25;18.42;;;12.45;;
46767;SDS011;69007;48.978;18.066;2024-03-23T04:25:51;16.27;;;11.57;;
46767;SDS011;69007;48.978;18.066;2024-03-23T04:28:18;20.90;;;13.13;;
46767;SDS011;69007;48.978;18.066;2024-03-23T04:30:43;17.75;;;11.90;;
46767;SDS011;69007;48.978;18.066;2024-03-23T04:33:09;16.45;;;11.20;;
46767;SDS011;69007;48.978;18.066;2024-03-23T04:35:34;18.98;;;12.63;;
46767;SDS011;69007;48.978;18.066;2024-03-23T04:38:00;16.80;;;12.25;;
46767;SDS011;69007;48.978;18.066;2024-03-23T04:40:25;16.83;;;12.07;;
46767;SDS011;69007;48.978;18.066;2024-03-23T04:42:51;19.80;;;12.85;;
46767;SDS011;69007;48.978;18.066;2024-03-23T04:45:17;20.38;;;12.73;;
46767;SDS011;69007;48.978;18.066;2024-03-23T04:47:42;17.65;;;12.30;;
46767;SDS011;69007;48.978;18.066;2024-03-23T04:50:09;17.13;;;12.10;;
46767;SDS011;69007;48.978;18.066;2024-03-23T04:52:38;20.40;;;13.07;;
46767;SDS011;69007;48.978;18.066;2024-03-23T04:55:03;21.55;;;13.18;;
46767;SDS011;69007;48.978;18.066;2024-03-23T04:57:30;23.90;;;13.10;;
46767;SDS011;69007;48.978;18.066;2024-03-23T04:59:56;17.63;;;12.63;;
46767;SDS011;69007;48.978;18.066;2024-03-23T05:02:23;18.33;;;12.13;;
46767;SDS011;69007;48.978;18.066;2024-03-23T05:04:50;22.55;;;12.23;;
46767;SDS011;69007;48.978;18.066;2024-03-23T05:07:16;17.65;;;11.50;;
46767;SDS011;69007;48.978;18.066;2024-03-23T05:09:42;19.45;;;12.10;;
46767;SDS011;69007;48.978;18.066;2024-03-23T05:12:07;18.27;;;11.50;;
46767;SDS011;69007;48.978;18.066;2024-03-23T05:14:32;16.48;;;11.38;;
46767;SDS011;69007;48.978;18.066;2024-03-23T05:16:58;16.95;;;12.38;;
46767;SDS011;69007;48.978;18.066;2024-03-23T05:19:23;18.75;;;12.57;;
46767;SDS011;69007;48.978;18.066;2024-03-23T05:21:48;19.83;;;12.95;;
46767;SDS011;69007;48.978;18.066;2024-03-23T05:24:14;23.27;;;15.80;;
46767;SDS011;69007;48.978;18.066;2024-03-23T05:26:39;27.45;;;14.65;;
46767;SDS011;69007;48.978;18.066;2024-03-23T05:29:06;25.63;;;15.60;;
46767;SDS011;69007;48.978;18.066;2024-03-23T05:31:35;24.00;;;15.43;;
46767;SDS011;69007;48.978;18.066;2024-03-23T05:34:01;19.70;;;12.88;;
46767;SDS011;69007;48.978;18.066;2024-03-23T05:36:26;19.35;;;12.00;;
46767;SDS011;69007;48.978;18.066;2024-03-23T05:38:51;16.35;;;12.10;;
46767;SDS011;69007;48.978;18.066;2024-03-23T05:41:17;19.20;;;13.05;;
46767;SDS011;69007;48.978;18.066;2024-03-23T05:43:42;20.25;;;12.75;;
46767;SDS011;69007;48.978;18.066;2024-03-23T05:46:08;15.27;;;11.77;;
46767;SDS011;69007;48.978;18.066;2024-03-23T05:48:34;21.60;;;13.30;;
46767;SDS011;69007;48.978;18.066;2024-03-23T05:50:59;18.85;;;13.02;;
46767;SDS011;69007;48.978;18.066;2024-03-23T05:53:25;19.05;;;12.20;;
46767;SDS011;69007;48.978;18.066;2024-03-23T05:55:50;20.83;;;12.65;;
46767;SDS011;69007;48.978;18.066;2024-03-23T05:58:18;15.35;;;12.18;;
46767;SDS011;69007;48.978;18.066;2024-03-23T06:00:45;16.38;;;12.32;;
46767;SDS011;69007;48.978;18.066;2024-03-23T06:03:10;16.42;;;12.10;;
46767;SDS011;69007;48.978;18.066;2024-03-23T06:05:36;17.98;;;12.23;;
46767;SDS011;69007;48.978;18.066;2024-03-23T06:08:02;17.50;;;12.50;;
46767;SDS011;69007;48.978;18.066;2024-03-23T06:10:28;20.73;;;12.75;;
46767;SDS011;69007;48.978;18.066;2024-03-23T06:12:53;18.42;;;11.40;;
46767;SDS011;69007;48.978;18.066;2024-03-23T06:15:19;18.15;;;12.20;;
46767;SDS011;69007;48.978;18.066;2024-03-23T06:17:45;17.25;;;12.40;;
46767;SDS011;69007;48.978;18.066;2024-03-23T06:20:10;19.20;;;12.60;;
46767;SDS011;69007;48.978;18.066;2024-03-23T06:22:36;18.67;;;12.48;;
46767;SDS011;69007;48.978;18.066;2024-03-23T06:25:01;18.85;;;12.32;;
46767;SDS011;69007;48.978;18.066;2024-03-23T06:27:27;22.38;;;11.63;;
46767;SDS011;69007;48.978;18.066;2024-03-23T06:29:53;18.63;;;12.60;;
46767;SDS011;69007;48.978;18.066;2024-03-23T06:32:18;19.42;;;12.52;;
46767;SDS011;69007;48.978;18.066;2024-03-23T06:34:44;20.33;;;13.27;;
46767;SDS011;69007;48.978;18.066;2024-03-23T06:37:09;23.60;;;13.20;;
46767;SDS011;69007;48.978;18.066;2024-03-23T06:39:36;19.48;;;12.82;;
46767;SDS011;69007;48.978;18.066;2024-03-23T06:42:02;19.52;;;12.95;;
46767;SDS011;69007;48.978;18.066;2024-03-23T06:44:27;21.83;;;12.80;;
46767;SDS011;69007;48.978;18.066;2024-03-23T06:46:53;20.85;;;11.90;;
46767;SDS011;69007;48.978;18.066;2024-03-23T06:49:18;19.38;;;13.27;;
46767;SDS011;69007;48.978;18.066;2024-03-23T06:51:44;18.42;;;12.70;;
46767;SDS011;69007;48.978;18.066;2024-03-23T06:54:10;18.38;;;12.73;;
46767;SDS011;69007;48.978;18.066;2024-03-23T06:56:36;16.55;;;11.50;;
46767;SDS011;69007;48.978;18.066;2024-03-23T06:59:01;16.02;;;11.45;;
46767;SDS011;69007;48.978;18.066;2024-03-23T07:01:26;19.10;;;12.75;;
46767;SDS011;69007;48.978;18.066;2024-03-23T07:03:53;17.70;;;12.60;;
46767;SDS011;69007;48.978;18.066;2024-03-23T07:06:19;17.60;;;12.13;;
46767;SDS011;69007;48.978;18.066;2024-03-23T07:08:44;18.15;;;12.20;;
46767;SDS011;69007;48.978;18.066;2024-03-23T07:11:09;19.83;;;13.10;;
46767;SDS011;69007;48.978;18.066;2024-03-23T07:13:35;17.80;;;12.52;;
46767;SDS011;69007;48.978;18.066;2024-03-23T07:16:00;17.80;;;12.73;;
46767;SDS011;69007;48.978;18.066;2024-03-23T07:18:26;20.40;;;13.27;;
46767;SDS011;69007;48.978;18.066;2024-03-23T07:20:52;19.15;;;14.85;;
46767;SDS011;69007;48.978;18.066;2024-03-23T07:23:24;17.70;;;12.93;;
46767;SDS011;69007;48.978;18.066;2024-03-23T07:25:59;18.30;;;12.35;;
46767;SDS011;69007;48.978;18.066;2024-03-23T07:28:26;17.90;;;12.32;;
46767;SDS011;69007;48.978;18.066;2024-03-23T07:31:01;15.93;;;12.23;;
46767;SDS011;69007;48.978;18.066;2024-03-23T07:33:26;16.63;;;12.25;;
46767;SDS011;69007;48.978;18.066;2024-03-23T07:35:51;22.20;;;12.90;;
46767;SDS011;69007;48.978;18.066;2024-03-23T07:38:17;17.30;;;12.50;;
46767;SDS011;69007;48.978;18.066;2024-03-23T07:40:43;17.30;;;11.77;;
46767;SDS011;69007;48.978;18.066;2024-03-23T07:43:08;15.07;;;12.10;;
46767;SDS011;69007;48.978;18.066;2024-03-23T07:45:34;19.42;;;12.40;;
46767;SDS011;69007;48.978;18.066;2024-03-23T07:47:59;18.17;;;12.80;;
46767;SDS011;69007;48.978;18.066;2024-03-23T07:50:24;19.40;;;13.25;;
46767;SDS011;69007;48.978;18.066;2024-03-23T07:52:50;19.80;;;12.13;;
46767;SDS011;69007;48.978;18.066;2024-03-23T07:55:15;16.95;;;12.20;;
46767;SDS011;69007;48.978;18.066;2024-03-23T07:57:40;18.55;;;12.25;;
46767;SDS011;69007;48.978;18.066;2024-03-23T08:00:06;18.25;;;12.23;;
46767;SDS011;69007;48.978;18.066;2024-03-23T08:02:32;17.25;;;12.18;;
46767;SDS011;69007;48.978;18.066;2024-03-23T08:04:58;19.02;;;12.48;;
46767;SDS011;69007;48.978;18.066;2024-03-23T08:07:23;18.73;;;12.35;;
46767;SDS011;69007;48.978;18.066;2024-03-23T08:09:52;16.02;;;11.38;;
46767;SDS011;69007;48.978;18.066;2024-03-23T08:12:17;19.02;;;11.90;;
46767;SDS011;69007;48.978;18.066;2024-03-23T08:14:42;17.77;;;12.13;;
46767;SDS011;69007;48.978;18.066;2024-03-23T08:17:08;15.98;;;12.05;;
46767;SDS011;69007;48.978;18.066;2024-03-23T08:19:33;19.60;;;11.68;;
46767;SDS011;69007;48.978;18.066;2024-03-23T08:21:59;21.25;;;12.30;;
46767;SDS011;69007;48.978;18.066;2024-03-23T08:24:24;17.10;;;11.98;;
46767;SDS011;69007;48.978;18.066;2024-03-23T08:26:50;16.45;;;11.77;;
46767;SDS011;69007;48.978;18.066;2024-03-23T08:29:15;18.45;;;12.30;;
46767;SDS011;69007;48.978;18.066;2024-03-23T08:31:41;15.98;;;11.77;;
46767;SDS011;69007;48.978;18.066;2024-03-23T08:34:06;16.15;;;11.90;;
46767;SDS011;69007;48.978;18.066;2024-03-23T08:36:31;15.27;;;11.48;;
46767;SDS011;69007;48.978;18.066;2024-03-23T08:38:57;17.42;;;12.43;;
46767;SDS011;69007;48.978;18.066;2024-03-23T08:41:22;15.80;;;11.05;;
46767;SDS011;69007;48.978;18.066;2024-03-23T08:43:47;16.92;;;12.43;;
46767;SDS011;69007;48.978;18.066;2024-03-23T08:46:14;16.02;;;11.88;;
46767;SDS011;69007;48.978;18.066;2024-03-23T08:48:41;20.65;;;12.95;;
46767;SDS011;69007;48.978;18.066;2024-03-23T08:51:09;16.00;;;11.82;;
46767;SDS011;69007;48.978;18.066;2024-03-23T08:53:35;17.38;;;11.63;;
46767;SDS011;69007;48.978;18.066;2024-03-23T08:56:01;15.02;;;11.65;;
46767;SDS011;69007;48.978;18.066;2024-03-23T08:58:28;15.43;;;12.32;;
46767;SDS011;69007;48.978;18.066;2024-03-23T09:00:55;15.18;;;11.95;;
46767;SDS011;69007;48.978;18.066;2024-03-23T09:03:22;15.63;;;11.50;;
46767;SDS011;69007;48.978;18.066;2024-03-23T09:05:48;12.50;;;10.90;;
46767;SDS011;69007;48.978;18.066;2024-03-23T09:08:13;15.95;;;11.20;;
46767;SDS011;69007;48.978;18.066;2024-03-23T09:10:38;14.75;;;11.80;;
46767;SDS011;69007;48.978;18.066;2024-03-23T09:13:04;17.08;;;12.40;;
46767;SDS011;69007;48.978;18.066;2024-03-23T09:15:30;18.65;;;12.40;;
46767;SDS011;69007;48.978;18.066;2024-03-23T09:17:56;18.15;;;13.02;;
46767;SDS011;69007;48.978;18.066;2024-03-23T09:20:23;16.60;;;12.00;;
46767;SDS011;69007;48.978;18.066;2024-03-23T09:22:48;16.83;;;11.50;;
46767;SDS011;69007;48.978;18.066;2024-03-23T09:25:13;17.83;;;11.60;;
46767;SDS011;69007;48.978;18.066;2024-03-23T09:27:39;18.33;;;11.40;;
46767;SDS011;69007;48.978;18.066;2024-03-23T09:30:04;14.48;;;11.45;;
46767;SDS011;69007;48.978;18.066;2024-03-23T09:32:30;17.85;;;11.30;;
46767;SDS011;69007;48.978;18.066;2024-03-23T09:34:55;13.02;;;10.32;;
46767;SDS011;69007;48.978;18.066;2024-03-23T09:37:21;17.60;;;11.10;;
46767;SDS011;69007;48.978;18.066;2024-03-23T09:39:46;13.30;;;10.68;;
46767;SDS011;69007;48.978;18.066;2024-03-23T09:42:11;13.25;;;10.32;;
46767;SDS011;69007;48.978;18.066;2024-03-23T09:44:37;15.70;;;11.20;;
46767;SDS011;69007;48.978;18.066;2024-03-23T09:47:02;16.30;;;11.63;;
46767;SDS011;69007;48.978;18.066;2024-03-23T09:49:28;15.10;;;11.80;;
46767;SDS011;69007;48.978;18.066;2024-03-23T09:51:54;16.80;;;11.90;;
46767;SDS011;69007;48.978;18.066;2024-03-23T09:54:21;14.30;;;11.20;;
46767;SDS011;69007;48.978;18.066;2024-03-23T09:56:46;15.70;;;11.30;;
46767;SDS011;69007;48.978;18.066;2024-03-23T09:59:12;15.57;;;10.65;;
46767;SDS011;69007;48.978;18.066;2024-03-23T10:01:40;13.48;;;10.80;;
46767;SDS011;69007;48.978;18.066;2024-03-23T10:04:06;14.90;;;11.68;;
46767;SDS011;69007;48.978;18.066;2024-03-23T10:06:31;14.85;;;10.73;;
46767;SDS011;69007;48.978;18.066;2024-03-23T10:08:57;15.63;;;11.77;;
46767;SDS011;69007;48.978;18.066;2024-03-23T10:11:22;15.13;;;11.38;;
46767;SDS011;69007;48.978;18.066;2024-03-23T10:13:48;14.77;;;12.00;;
46767;SDS011;69007;48.978;18.066;2024-03-23T10:16:20;15.38;;;11.95;;
46767;SDS011;69007;48.978;18.066;2024-03-23T10:18:48;17.00;;;11.88;;
46767;SDS011;69007;48.978;18.066;2024-03-23T10:21:14;15.90;;;11.35;;
46767;SDS011;69007;48.978;18.066;2024-03-23T10:23:41;22.13;;;11.95;;
46767;SDS011;69007;48.978;18.066;2024-03-23T10:29:02;16.13;;;11.48;;
46767;SDS011;69007;48.978;18.066;2024-03-23T10:31:33;15.20;;;11.63;;
46767;SDS011;69007;48.978;18.066;2024-03-23T10:34:00;16.15;;;12.55;;
46767;SDS011;69007;48.978;18.066;2024-03-23T10:36:26;23.98;;;12.68;;
46767;SDS011;69007;48.978;18.066;2024-03-23T10:38:51;16.90;;;12.27;;
46767;SDS011;69007;48.978;18.066;2024-03-23T10:41:20;16.65;;;12.55;;
46767;SDS011;69007;48.978;18.066;2024-03-23T10:43:46;16.73;;;11.93;;
46767;SDS011;69007;48.978;18.066;2024-03-23T10:46:13;16.15;;;12.60;;
46767;SDS011;69007;48.978;18.066;2024-03-23T10:48:40;16.65;;;11.98;;
46767;SDS011;69007;48.978;18.066;2024-03-23T10:51:07;14.48;;;11.85;;
46767;SDS011;69007;48.978;18.066;2024-03-23T10:53:33;13.80;;;11.63;;
46767;SDS011;69007;48.978;18.066;2024-03-23T10:55:59;16.25;;;12.32;;
46767;SDS011;69007;48.978;18.066;2024-03-23T11:01:04;16.42;;;11.75;;
46767;SDS011;69007;48.978;18.066;2024-03-23T11:03:30;19.85;;;12.85;;
46767;SDS011;69007;48.978;18.066;2024-03-23T11:05:56;18.08;;;12.20;;
46767;SDS011;69007;48.978;18.066;2024-03-23T11:08:38;19.17;;;12.43;;
46767;SDS011;69007;48.978;18.066;2024-03-23T11:11:20;17.88;;;12.52;;
46767;SDS011;69007;48.978;18.066;2024-03-23T11:13:48;16.60;;;11.88;;
46767;SDS011;69007;48.978;18.066;2024-03-23T11:16:24;15.20;;;12.70;;
46767;SDS011;69007;48.978;18.066;2024-03-23T11:18:52;19.45;;;12.23;;
46767;SDS011;69007;48.978;18.066;2024-03-23T11:24:18;16.20;;;13.35;;
46767;SDS011;69007;48.978;18.066;2024-03-23T11:26:45;17.08;;;12.98;;
46767;SDS011;69007;48.978;18.066;2024-03-23T11:29:12;15.60;;;12.18;;
46767;SDS011;69007;48.978;18.066;2024-03-23T11:31:38;15.25;;;12.45;;
46767;SDS011;69007;48.978;18.066;2024-03-23T11:34:05;14.07;;;12.00;;
46767;SDS011;69007;48.978;18.066;2024-03-23T11:36:31;16.60;;;13.35;;
46767;SDS011;69007;48.978;18.066;2024-03-23T11:38:57;15.52;;;12.25;;
46767;SDS011;69007;48.978;18.066;2024-03-23T11:41:22;15.05;;;11.73;;
46767;SDS011;69007;48.978;18.066;2024-03-23T11:43:48;15.15;;;12.50;;
46767;SDS011;69007;48.978;18.066;2024-03-23T11:46:21;16.63;;;12.43;;
46767;SDS011;69007;48.978;18.066;2024-03-23T11:48:50;15.90;;;12.23;;
46767;SDS011;69007;48.978;18.066;2024-03-23T11:51:16;16.17;;;12.75;;
46767;SDS011;69007;48.978;18.066;2024-03-23T11:53:42;18.83;;;12.38;;
46767;SDS011;69007;48.978;18.066;2024-03-23T11:56:08;21.15;;;12.60;;
46767;SDS011;69007;48.978;18.066;2024-03-23T11:58:34;18.67;;;12.75;;
46767;SDS011;69007;48.978;18.066;2024-03-23T12:01:00;15.88;;;12.55;;
46767;SDS011;69007;48.978;18.066;2024-03-23T12:03:27;15.52;;;11.90;;
46767;SDS011;69007;48.978;18.066;2024-03-23T12:05:54;17.88;;;11.70;;
46767;SDS011;69007;48.978;18.066;2024-03-23T12:11:05;16.80;;;11.20;;
46767;SDS011;69007;48.978;18.066;2024-03-23T12:13:32;12.98;;;9.88;;
46767;SDS011;69007;48.978;18.066;2024-03-23T12:16:11;15.40;;;10.80;;
46767;SDS011;69007;48.978;18.066;2024-03-23T12:18:39;12.77;;;9.77;;
46767;SDS011;69007;48.978;18.066;2024-03-23T12:21:05;12.13;;;10.55;;
46767;SDS011;69007;48.978;18.066;2024-03-23T12:23:31;16.38;;;10.55;;
46767;SDS011;69007;48.978;18.066;2024-03-23T12:25:57;16.35;;;10.50;;
46767;SDS011;69007;48.978;18.066;2024-03-23T12:28:23;12.88;;;9.85;;
46767;SDS011;69007;48.978;18.066;2024-03-23T12:30:48;14.52;;;9.77;;
46767;SDS011;69007;48.978;18.066;2024-03-23T12:33:14;12.13;;;10.45;;
46767;SDS011;69007;48.978;18.066;2024-03-23T12:35:39;11.65;;;9.43;;
46767;SDS011;69007;48.978;18.066;2024-03-23T12:38:05;12.35;;;9.90;;
46767;SDS011;69007;48.978;18.066;2024-03-23T12:40:30;10.35;;;9.25;;
46767;SDS011;69007;48.978;18.066;2024-03-23T12:42:55;12.75;;;8.52;;
46767;SDS011;69007;48.978;18.066;2024-03-23T12:45:21;15.85;;;9.27;;
46767;SDS011;69007;48.978;18.066;2024-03-23T12:47:47;9.18;;;7.70;;
46767;SDS011;69007;48.978;18.066;2024-03-23T12:50:12;10.88;;;7.63;;
46767;SDS011;69007;48.978;18.066;2024-03-23T12:52:37;7.97;;;7.18;;
46767;SDS011;69007;48.978;18.066;2024-03-23T12:55:03;11.45;;;7.53;;
46767;SDS011;69007;48.978;18.066;2024-03-23T12:57:32;12.73;;;8.30;;
46767;SDS011;69007;48.978;18.066;2024-03-23T12:59:58;9.70;;;7.85;;
46767;SDS011;69007;48.978;18.066;2024-03-23T13:02:24;10.80;;;8.07;;
46767;SDS011;69007;48.978;18.066;2024-03-23T13:04:50;11.57;;;8.32;;
46767;SDS011;69007;48.978;18.066;2024-03-23T13:07:17;11.85;;;8.18;;
46767;SDS011;69007;48.978;18.066;2024-03-23T13:09:42;9.88;;;7.82;;
46767;SDS011;69007;48.978;18.066;2024-03-23T13:12:08;14.00;;;7.80;;
46767;SDS011;69007;48.978;18.066;2024-03-23T13:14:34;13.63;;;8.30;;
46767;SDS011;69007;48.978;18.066;2024-03-23T13:17:00;10.68;;;8.05;;
46767;SDS011;69007;48.978;18.066;2024-03-23T13:19:25;12.13;;;8.07;;
46767;SDS011;69007;48.978;18.066;2024-03-23T13:21:54;10.18;;;7.47;;
46767;SDS011;69007;48.978;18.066;2024-03-23T13:24:23;10.05;;;7.55;;
46767;SDS011;69007;48.978;18.066;2024-03-23T13:26:52;10.38;;;7.60;;
46767;SDS011;69007;48.978;18.066;2024-03-23T13:29:21;13.55;;;8.00;;
46767;SDS011;69007;48.978;18.066;2024-03-23T13:31:47;12.73;;;7.78;;
46767;SDS011;69007;48.978;18.066;2024-03-23T13:34:13;14.00;;;7.28;;
46767;SDS011;69007;48.978;18.066;2024-03-23T13:36:40;9.80;;;8.35;;
46767;SDS011;69007;48.978;18.066;2024-03-23T13:39:06;11.40;;;7.55;;
46767;SDS011;69007;48.978;18.066;2024-03-23T13:41:36;12.50;;;8.65;;
46767;SDS011;69007;48.978;18.066;2024-03-23T13:44:09;13.20;;;7.22;;
46767;SDS011;69007;48.978;18.066;2024-03-23T13:46:36;7.78;;;6.88;;
46767;SDS011;69007;48.978;18.066;2024-03-23T13:49:01;10.23;;;7.30;;
46767;SDS011;69007;48.978;18.066;2024-03-23T13:51:26;12.82;;;8.90;;
46767;SDS011;69007;48.978;18.066;2024-03-23T13:53:55;14.52;;;7.53;;
46767;SDS011;69007;48.978;18.066;2024-03-23T13:56:22;4.95;;;3.38;;
46767;SDS011;69007;48.978;18.066;2024-03-23T13:58:47;2.35;;;1.63;;
46767;SDS011;69007;48.978;18.066;2024-03-23T14:01:16;2.22;;;1.50;;
46767;SDS011;69007;48.978;18.066;2024-03-23T14:03:42;1.52;;;1.35;;
46767;SDS011;69007;48.978;18.066;2024-03-23T14:06:08;3.30;;;1.42;;
46767;SDS011;69007;48.978;18.066;2024-03-23T14:08:35;2.95;;;1.40;;
46767;SDS011;69007;48.978;18.066;2024-03-23T14:11:04;3.15;;;1.15;;
46767;SDS011;69007;48.978;18.066;2024-03-23T14:13:30;2.30;;;1.00;;
46767;SDS011;69007;48.978;18.066;2024-03-23T14:15:56;9.15;;;1.40;;
46767;SDS011;69007;48.978;18.066;2024-03-23T14:18:22;3.95;;;1.50;;
46767;SDS011;69007;48.978;18.066;2024-03-23T14:20:48;4.13;;;1.30;;
46767;SDS011;69007;48.978;18.066;2024-03-23T14:23:14;1.23;;;1.10;;
46767;SDS011;69007;48.978;18.066;2024-03-23T14:25:40;1.60;;;1.15;;
46767;SDS011;69007;48.978;18.066;2024-03-23T14:28:05;1.15;;;1.08;;
46767;SDS011;69007;48.978;18.066;2024-03-23T14:30:30;6.40;;;1.58;;
46767;SDS011;69007;48.978;18.066;2024-03-23T14:32:56;2.00;;;1.30;;
46767;SDS011;69007;48.978;18.066;2024-03-23T14:35:22;3.72;;;1.15;;
46767;SDS011;69007;48.978;18.066;2024-03-23T14:37:48;1.75;;;1.42;;
46767;SDS011;69007;48.978;18.066;2024-03-23T14:40:14;3.25;;;1.20;;
46767;SDS011;69007;48.978;18.066;2024-03-23T14:42:39;4.88;;;1.08;;
46767;SDS011;69007;48.978;18.066;2024-03-23T14:45:06;1.92;;;0.90;;
46767;SDS011;69007;48.978;18.066;2024-03-23T14:47:32;3.50;;;1.15;;
46767;SDS011;69007;48.978;18.066;2024-03-23T14:49:57;2.00;;;0.90;;
46767;SDS011;69007;48.978;18.066;2024-03-23T14:52:23;4.30;;;1.20;;
46767;SDS011;69007;48.978;18.066;2024-03-23T14:54:49;3.33;;;1.35;;
46767;SDS011;69007;48.978;18.066;2024-03-23T14:57:14;2.13;;;1.10;;
46767;SDS011;69007;48.978;18.066;2024-03-23T14:59:40;2.80;;;0.95;;
46767;SDS011;69007;48.978;18.066;2024-03-23T15:02:08;0.98;;;0.98;;
46767;SDS011;69007;48.978;18.066;2024-03-23T15:04:33;1.80;;;0.82;;
46767;SDS011;69007;48.978;18.066;2024-03-23T15:06:59;0.82;;;0.80;;
46767;SDS011;69007;48.978;18.066;2024-03-23T15:09:25;1.35;;;0.93;;
46767;SDS011;69007;48.978;18.066;2024-03-23T15:11:50;2.20;;;0.90;;